OMRK

Ras Al Khaimah International Airport

Airport
ICAO code
OMRK
IATA Code
RKT
Summary
ICAO Region
MID
ICAO Territory
Location

Ras Al Khaimah,

Serving
Ras Al Khaimah
Elevation
102 ft
Coordinates
25° 36' 57" N , 55° 56' 22" E
KCC
BWh
Metar
Observation
OMRK 102200Z 05005KT CAVOK 33/24 Q0994 A2936
Station
Ras Al Khaimah International Airport
Date/Time
2022-08-10 22:00:00
Wind direction
50°
Wind speed
05 kts
Lowest cloud amount
clouds and visibility OK
Temperature
33°C
Dew point
24°C
Humidity
59%
QNH
994 hPa
Weather condition
n/a

Description

Khaimah International Airport is located 15 km

Climatology

Hot Desert Climate (Köppen climate classification BWh) - Hot desert climates are typically found in the subtropics where there is unbroken sunshine for the whole year due to the stable descending air and high pressure, little or no precipitation. Maximum temperatures of 40°C to 45°C are not uncommon, particularly during the warmer months of the year. During colder periods of the year, night-time temperatures can drop to freezing or below due to the exceptional radiation loss under the clear skies. However, very rarely do temperatures drop far below freezing.

Runways

Designator Length Width Surface Rops
16/34 3760 45 ASP Yes/Yes

Airport map

Aerial View

SKYbrary Partners:

Safety knowledge contributed by: